createdAt,value
2023-09-25T00:01:18.412Z,1.00
2023-09-25T00:03:45.711Z,1.00
2023-09-25T00:06:12.805Z,1.00
2023-09-25T00:08:39.673Z,1.00
2023-09-25T00:11:07.991Z,1.00
2023-09-25T00:13:35.118Z,1.00
2023-09-25T00:16:02.196Z,1.00
2023-09-25T00:18:30.481Z,99.90
2023-09-25T00:20:57.472Z,17.40
2023-09-25T00:23:24.383Z,1.00
2023-09-25T00:25:52.226Z,1.00
2023-09-25T00:28:19.143Z,99.90
2023-09-25T00:30:46.206Z,1.00
2023-09-25T00:33:13.995Z,1.00
2023-09-25T00:35:43.668Z,1.00
2023-09-25T00:38:10.646Z,1.00
2023-09-25T00:40:38.291Z,99.90
2023-09-25T00:43:07.002Z,1.00
2023-09-25T00:45:39.386Z,1.00
2023-09-25T00:48:07.137Z,31.40
2023-09-25T00:50:35.286Z,1.00
2023-09-25T00:53:10.444Z,1.00
2023-09-25T00:55:37.315Z,1.00
2023-09-25T00:58:07.966Z,14.70
2023-09-25T01:00:36.954Z,99.90
2023-09-25T01:03:04.502Z,1.00
2023-09-25T01:05:33.886Z,99.90
2023-09-25T01:08:00.990Z,99.90
2023-09-25T01:10:27.979Z,1.00
2023-09-25T01:12:56.013Z,1.00
2023-09-25T01:15:23.349Z,1.00
2023-09-25T01:17:50.456Z,1.00
2023-09-25T01:20:18.922Z,1.00
2023-09-25T01:22:50.705Z,1.00
2023-09-25T01:25:19.068Z,1.00
2023-09-25T01:27:50.736Z,99.90
2023-09-25T01:30:18.955Z,1.00
2023-09-25T01:32:47.105Z,1.00
2023-09-25T01:35:16.159Z,99.90
2023-09-25T01:37:43.369Z,99.90
2023-09-25T01:40:15.207Z,1.00
2023-09-25T01:42:42.176Z,1.00
2023-09-25T01:45:13.403Z,1.00
2023-09-25T01:47:41.543Z,1.00
2023-09-25T01:50:12.195Z,1.00
2023-09-25T01:52:41.836Z,1.00
2023-09-25T01:55:09.171Z,1.00
2023-09-25T01:57:36.593Z,1.00
2023-09-25T02:00:09.228Z,1.00
2023-09-25T02:02:36.332Z,1.00
2023-09-25T02:05:03.940Z,1.00
2023-09-25T02:07:31.238Z,38.40
2023-09-25T02:09:58.115Z,99.90
2023-09-25T02:12:24.973Z,99.90
2023-09-25T02:14:56.020Z,99.90
2023-09-25T02:17:22.839Z,99.90
2023-09-25T02:19:49.642Z,99.90
2023-09-25T02:22:16.584Z,99.90
2023-09-25T02:24:43.567Z,99.90
2023-09-25T02:27:10.797Z,99.90
2023-09-25T02:29:37.833Z,99.90
2023-09-25T02:32:04.844Z,99.90
2023-09-25T02:34:31.707Z,99.90
2023-09-25T02:36:59.009Z,99.90
2023-09-25T02:39:25.793Z,99.90
2023-09-25T02:41:52.831Z,99.90
2023-09-25T02:44:19.618Z,99.90
2023-09-25T02:46:46.718Z,99.90
2023-09-25T02:49:13.717Z,99.90
2023-09-25T02:58:03.871Z,99.90
2023-09-25T03:00:30.788Z,99.90
2023-09-25T03:02:58.867Z,99.90
2023-09-25T03:05:26.008Z,99.90
2023-09-25T03:07:52.961Z,99.90
2023-09-25T03:10:19.774Z,99.90
2023-09-25T03:12:46.754Z,99.90
2023-09-25T03:15:13.856Z,99.90
2023-09-25T03:17:40.817Z,99.90
2023-09-25T03:20:13.937Z,99.90
2023-09-25T03:22:40.717Z,99.90
2023-09-25T03:25:07.894Z,99.90
2023-09-25T03:27:35.301Z,99.90
2023-09-25T03:30:02.146Z,99.90
2023-09-25T03:32:29.004Z,99.90
2023-09-25T03:34:55.994Z,99.90
2023-09-25T03:37:22.792Z,99.90
2023-09-25T03:39:49.771Z,99.90
2023-09-25T03:42:17.248Z,99.90
2023-09-25T03:44:44.042Z,99.90
2023-09-25T03:47:11.269Z,99.90
2023-09-25T03:49:38.342Z,99.90
2023-09-25T03:52:05.416Z,99.90
2023-09-25T03:54:32.301Z,99.90
2023-09-25T03:56:59.374Z,99.90
2023-09-25T03:59:26.377Z,99.90
2023-09-25T04:01:53.134Z,99.90
2023-09-25T04:04:19.974Z,99.90
2023-09-25T04:06:47.148Z,99.90
2023-09-25T04:09:14.161Z,99.90
2023-09-25T04:11:40.902Z,99.90
2023-09-25T04:14:07.882Z,99.90
2023-09-25T04:16:34.820Z,99.90
2023-09-25T04:19:05.566Z,99.90
2023-09-25T04:21:33.998Z,99.90
2023-09-25T04:24:04.646Z,99.90
2023-09-25T04:26:31.565Z,99.90
2023-09-25T04:28:58.501Z,99.90
2023-09-25T04:31:25.322Z,99.90
2023-09-25T04:33:53.608Z,99.90
2023-09-25T04:36:20.628Z,99.90
2023-09-25T04:38:47.671Z,99.90
2023-09-25T04:41:14.733Z,99.90
2023-09-25T04:43:41.639Z,99.90
2023-09-25T04:46:08.854Z,99.90
2023-09-25T04:48:37.560Z,99.90
2023-09-25T04:51:04.735Z,99.90
2023-09-25T04:53:31.511Z,99.90
2023-09-25T04:55:58.450Z,99.90
2023-09-25T04:58:25.399Z,99.90
2023-09-25T05:00:56.253Z,99.90
2023-09-25T05:03:23.294Z,99.90
2023-09-25T05:05:50.127Z,99.90
2023-09-25T05:08:17.016Z,99.90
2023-09-25T05:10:45.776Z,99.90
2023-09-25T05:13:12.531Z,99.90
2023-09-25T05:15:39.394Z,99.90
2023-09-25T05:18:06.766Z,99.90
2023-09-25T05:20:33.585Z,99.90
2023-09-25T05:23:00.318Z,99.90
2023-09-25T05:25:28.193Z,99.90
2023-09-25T05:27:57.736Z,99.90
2023-09-25T05:30:24.990Z,99.90
2023-09-25T05:32:53.008Z,99.90
2023-09-25T05:35:20.518Z,99.90
2023-09-25T05:37:49.359Z,99.90
2023-09-25T05:40:17.772Z,99.90
2023-09-25T05:42:46.517Z,99.90
2023-09-25T05:45:15.016Z,99.90
2023-09-25T05:47:42.368Z,99.90
2023-09-25T05:50:09.974Z,99.90
2023-09-25T05:52:38.537Z,99.90
2023-09-25T05:55:07.901Z,99.90
2023-09-25T05:57:35.669Z,99.90
2023-09-25T06:00:04.765Z,99.90
2023-09-25T06:02:37.294Z,99.90
2023-09-25T06:05:04.842Z,99.90
2023-09-25T06:07:31.920Z,99.90
2023-09-25T06:09:58.885Z,99.90
2023-09-25T06:12:25.860Z,99.90
2023-09-25T06:14:52.599Z,99.90
2023-09-25T06:17:19.549Z,99.90
2023-09-25T06:19:46.887Z,99.90
2023-09-25T06:22:13.639Z,1.00
2023-09-25T06:24:40.603Z,99.90
2023-09-25T06:27:07.434Z,99.90
2023-09-25T06:29:34.222Z,99.90
2023-09-25T06:32:02.345Z,99.90
2023-09-25T06:34:29.776Z,99.90
2023-09-25T06:36:56.984Z,99.90
2023-09-25T06:39:24.770Z,99.90
2023-09-25T06:41:54.241Z,99.90
2023-09-25T06:44:21.086Z,1.00
2023-09-25T06:46:48.240Z,69.00
2023-09-25T06:49:15.161Z,1.00
2023-09-25T06:51:42.078Z,1.00
2023-09-25T06:54:10.358Z,99.90
2023-09-25T06:56:37.465Z,1.00
2023-09-25T06:59:04.591Z,6.60
2023-09-25T07:01:32.280Z,57.40
2023-09-25T07:03:59.546Z,99.70
2023-09-25T07:06:26.849Z,1.00
2023-09-25T07:08:53.910Z,1.00
2023-09-25T07:11:20.912Z,24.20
2023-09-25T07:13:49.947Z,99.90
2023-09-25T07:16:17.421Z,99.90
2023-09-25T07:18:47.414Z,99.90
2023-09-25T07:21:16.612Z,1.00
2023-09-25T07:23:43.946Z,99.90
2023-09-25T07:26:10.947Z,1.00
2023-09-25T07:28:38.372Z,99.90
2023-09-25T07:31:07.487Z,1.00
2023-09-25T07:33:35.774Z,99.90
2023-09-25T07:36:06.438Z,1.00
2023-09-25T07:38:34.974Z,1.00
2023-09-25T07:41:03.196Z,99.90
2023-09-25T07:46:02.673Z,1.00
2023-09-25T07:48:33.233Z,1.00
2023-09-25T07:51:00.094Z,94.50
2023-09-25T07:53:29.839Z,1.00
2023-09-25T07:55:58.139Z,1.00
2023-09-25T07:58:24.940Z,1.00
2023-09-25T08:00:53.369Z,99.90
2023-09-25T08:03:23.918Z,99.90
2023-09-25T08:05:54.150Z,99.90
2023-09-25T08:08:21.465Z,2.80
2023-09-25T08:10:48.909Z,5.70
2023-09-25T08:13:19.332Z,99.90
2023-09-25T08:15:46.467Z,99.90
2023-09-25T08:18:13.696Z,1.00
2023-09-25T08:20:40.829Z,1.00
2023-09-25T08:23:09.012Z,99.90
2023-09-25T08:25:36.112Z,1.00
2023-09-25T08:28:03.046Z,87.80
2023-09-25T08:30:29.972Z,1.00
2023-09-25T08:32:57.738Z,1.00
2023-09-25T08:35:25.285Z,1.00
2023-09-25T08:37:52.257Z,1.00
2023-09-25T08:40:20.537Z,99.90
2023-09-25T08:42:48.201Z,99.90
2023-09-25T08:45:16.481Z,1.00
2023-09-25T08:47:44.315Z,99.90
2023-09-25T08:50:11.638Z,1.00
2023-09-25T08:52:38.659Z,1.00
2023-09-25T08:55:06.953Z,1.00
2023-09-25T08:57:35.061Z,1.00
2023-09-25T09:00:13.308Z,99.90
2023-09-25T09:02:41.901Z,99.90
2023-09-25T09:05:13.397Z,99.90
2023-09-25T09:08:03.390Z,1.00
2023-09-25T09:10:34.436Z,56.80
2023-09-25T09:13:03.832Z,1.00
2023-09-25T09:15:32.637Z,14.40
2023-09-25T09:17:59.946Z,1.00
2023-09-25T09:20:38.315Z,1.00
2023-09-25T09:23:07.487Z,1.00
2023-09-25T09:25:35.168Z,45.10
2023-09-25T09:28:05.760Z,99.90
2023-09-25T09:30:33.247Z,99.90
2023-09-25T09:33:00.185Z,99.90
2023-09-25T09:35:27.521Z,99.90
2023-09-25T09:37:55.848Z,99.90
2023-09-25T09:40:25.194Z,99.90
2023-09-25T09:42:55.929Z,99.90
2023-09-25T09:45:23.218Z,99.90
2023-09-25T09:47:52.206Z,99.90
2023-09-25T09:50:27.801Z,99.90
2023-09-25T09:52:55.656Z,99.90
2023-09-25T09:55:23.133Z,99.90
2023-09-25T09:57:58.175Z,99.90
2023-09-25T10:00:25.735Z,99.90
2023-09-25T10:02:53.102Z,99.90
2023-09-25T10:05:20.187Z,99.90
2023-09-25T10:08:11.592Z,99.90
2023-09-25T10:10:42.544Z,99.90
2023-09-25T10:13:27.632Z,99.90
2023-09-25T10:16:02.667Z,99.90
2023-09-25T10:18:31.104Z,99.90
2023-09-25T10:21:09.587Z,99.90
2023-09-25T10:23:40.636Z,99.90
2023-09-25T10:26:31.835Z,99.90
2023-09-25T10:29:13.572Z,99.90
2023-09-25T10:31:46.769Z,99.90
2023-09-25T10:34:13.839Z,99.90
2023-09-25T10:36:45.533Z,99.90
2023-09-25T10:39:17.062Z,99.90
2023-09-25T10:41:46.856Z,99.90
2023-09-25T10:44:14.425Z,99.90
2023-09-25T10:46:41.951Z,99.90
2023-09-25T10:49:12.041Z,99.90
2023-09-25T10:51:39.085Z,99.90
2023-09-25T10:54:06.309Z,99.90
2023-09-25T10:56:33.975Z,99.90
2023-09-25T10:59:02.139Z,99.90
2023-09-25T11:01:30.850Z,99.90
2023-09-25T11:04:01.418Z,99.90
2023-09-25T11:06:29.438Z,99.90
2023-09-25T11:09:19.938Z,99.90
2023-09-25T11:11:47.458Z,99.90
2023-09-25T11:14:14.743Z,99.90
2023-09-25T11:16:41.897Z,99.90
2023-09-25T11:19:15.990Z,99.90
2023-09-25T11:21:47.749Z,99.90
2023-09-25T11:24:15.109Z,99.90
2023-09-25T11:26:44.320Z,99.90
2023-09-25T11:29:12.948Z,99.90
2023-09-25T11:34:11.114Z,99.90
2023-09-25T11:36:46.028Z,99.90
2023-09-25T11:39:16.863Z,99.90
2023-09-25T11:41:44.678Z,99.90
2023-09-25T11:44:11.678Z,99.90
2023-09-25T11:46:38.730Z,99.90
2023-09-25T11:49:05.955Z,99.90
2023-09-25T11:51:35.182Z,99.90
2023-09-25T11:54:04.953Z,99.90
2023-09-25T11:56:32.542Z,99.90
2023-09-25T11:58:59.558Z,99.90
2023-09-25T12:01:26.497Z,99.90
2023-09-25T12:03:53.823Z,99.90
2023-09-25T12:06:25.832Z,99.90
2023-09-25T12:08:53.376Z,99.90
2023-09-25T12:11:20.229Z,99.90
2023-09-25T12:13:47.377Z,99.90
2023-09-25T12:16:14.459Z,99.90
2023-09-25T12:18:42.043Z,99.90
2023-09-25T12:21:10.331Z,99.90
2023-09-25T12:23:37.561Z,99.90
2023-09-25T12:26:05.307Z,99.90
2023-09-25T12:28:33.735Z,99.90
2023-09-25T12:31:01.868Z,99.90
2023-09-25T12:33:28.723Z,99.90
2023-09-25T12:35:55.934Z,99.90
2023-09-25T12:38:25.505Z,99.90
2023-09-25T12:40:54.275Z,99.90
2023-09-25T12:43:23.035Z,99.90
2023-09-25T12:45:50.080Z,99.90
2023-09-25T12:48:17.186Z,99.90
2023-09-25T12:50:44.023Z,99.90
2023-09-25T12:53:11.414Z,99.90
2023-09-25T12:55:38.917Z,99.90
2023-09-25T12:58:05.962Z,99.90
2023-09-25T13:00:32.889Z,99.90
2023-09-25T13:03:00.046Z,99.90
2023-09-25T13:05:27.104Z,99.90
2023-09-25T13:07:54.063Z,99.90
2023-09-25T13:10:21.057Z,99.90
2023-09-25T13:12:47.866Z,99.90
2023-09-25T13:15:20.810Z,99.90
2023-09-25T13:17:53.786Z,99.90
2023-09-25T13:20:21.109Z,99.90
2023-09-25T13:22:48.415Z,99.90
2023-09-25T13:25:15.435Z,99.90
2023-09-25T13:27:49.711Z,99.90
2023-09-25T13:30:20.163Z,99.90
2023-09-25T13:32:47.561Z,99.90
2023-09-25T13:35:14.554Z,99.90
2023-09-25T13:37:41.802Z,99.90
2023-09-25T13:40:11.966Z,99.90
2023-09-25T13:42:39.281Z,99.90
2023-09-25T13:45:07.896Z,99.90
2023-09-25T13:47:34.831Z,99.90
2023-09-25T13:50:02.741Z,99.90
2023-09-25T13:52:30.068Z,99.90
2023-09-25T13:54:58.323Z,99.90
2023-09-25T13:57:25.936Z,99.90
2023-09-25T13:59:53.087Z,99.90
2023-09-25T14:02:19.855Z,99.90
2023-09-25T14:04:46.870Z,99.90
2023-09-25T14:07:13.920Z,99.90
2023-09-25T14:09:41.536Z,99.90
2023-09-25T14:12:08.474Z,99.90
2023-09-25T14:14:49.056Z,99.90
2023-09-25T14:17:15.927Z,99.90
2023-09-25T14:19:42.852Z,99.90
2023-09-25T14:22:09.833Z,99.90
2023-09-25T14:24:36.931Z,99.90
2023-09-25T14:27:04.045Z,99.90
2023-09-25T14:29:32.989Z,99.90
2023-09-25T14:31:59.952Z,99.90
2023-09-25T14:34:27.096Z,99.90
2023-09-25T14:36:53.926Z,99.90
2023-09-25T14:39:25.219Z,99.90
2023-09-25T14:41:52.262Z,99.90
2023-09-25T14:44:19.094Z,99.90
2023-09-25T14:46:45.902Z,99.90
2023-09-25T14:49:13.037Z,99.90
2023-09-25T14:51:40.128Z,99.90
2023-09-25T14:54:06.986Z,99.90
2023-09-25T14:56:33.925Z,99.90
2023-09-25T14:59:00.853Z,99.90
2023-09-25T15:01:27.743Z,99.90
2023-09-25T15:03:54.860Z,99.90
2023-09-25T15:06:21.860Z,99.90
2023-09-25T15:08:49.528Z,99.90
2023-09-25T15:11:16.527Z,99.90
2023-09-25T15:13:43.645Z,99.90
2023-09-25T15:16:10.740Z,99.90
2023-09-25T15:18:37.942Z,99.90
2023-09-25T15:21:05.968Z,99.90
2023-09-25T15:23:33.454Z,99.90
2023-09-25T15:26:00.485Z,99.90
2023-09-25T15:28:27.340Z,99.90
2023-09-25T15:30:54.125Z,99.90
2023-09-25T15:33:21.119Z,99.90
2023-09-25T15:35:49.563Z,99.90
2023-09-25T15:38:17.462Z,99.90
2023-09-25T15:40:44.584Z,99.90
2023-09-25T15:43:11.478Z,99.90
2023-09-25T15:45:38.350Z,99.90
2023-09-25T15:48:05.839Z,99.90
2023-09-25T15:50:32.654Z,99.90
2023-09-25T15:52:59.600Z,99.90
2023-09-25T15:55:26.581Z,99.90
2023-09-25T15:57:53.504Z,99.90
2023-09-25T16:00:20.567Z,99.90
2023-09-25T16:02:47.582Z,99.90
2023-09-25T16:05:14.417Z,99.90
2023-09-25T16:07:41.211Z,99.90
2023-09-25T16:10:09.319Z,99.90
2023-09-25T16:12:36.192Z,1.00
2023-09-25T16:15:03.442Z,1.00
2023-09-25T16:17:30.870Z,2.40
2023-09-25T16:19:57.899Z,37.30
2023-09-25T16:22:25.013Z,1.00
2023-09-25T16:24:52.276Z,1.00
2023-09-25T16:27:19.102Z,1.00
2023-09-25T16:29:45.885Z,1.00
2023-09-25T16:32:13.122Z,99.90
2023-09-25T16:34:40.003Z,1.00
2023-09-25T16:37:07.178Z,1.00
2023-09-25T16:39:34.751Z,1.00
2023-09-25T16:42:01.932Z,99.90
2023-09-25T16:44:28.937Z,99.90
2023-09-25T16:46:56.165Z,47.70
2023-09-25T16:49:23.991Z,99.90
2023-09-25T16:51:51.347Z,99.90
2023-09-25T16:54:18.159Z,1.00
2023-09-25T16:56:45.204Z,1.00
2023-09-25T16:59:12.236Z,1.00
2023-09-25T17:01:39.512Z,1.00
2023-09-25T17:04:06.573Z,1.00
2023-09-25T17:06:34.031Z,99.90
2023-09-25T17:09:00.920Z,99.90
2023-09-25T17:11:34.204Z,99.90
2023-09-25T17:14:01.975Z,99.90
2023-09-25T17:16:31.996Z,1.00
2023-09-25T17:19:00.302Z,1.00
2023-09-25T17:21:28.041Z,1.00
2023-09-25T17:23:55.119Z,99.90
2023-09-25T17:26:22.614Z,99.90
2023-09-25T17:28:51.199Z,1.00
2023-09-25T17:31:18.507Z,99.90
2023-09-25T17:33:45.804Z,1.00
2023-09-25T17:36:12.700Z,99.90
2023-09-25T17:38:39.679Z,1.00
2023-09-25T17:41:11.328Z,99.90
2023-09-25T17:43:38.826Z,99.90
2023-09-25T17:46:06.715Z,1.00
2023-09-25T17:48:35.202Z,1.00
2023-09-25T17:51:03.511Z,1.00
2023-09-25T17:53:30.596Z,60.30
2023-09-25T17:55:57.740Z,1.00
2023-09-25T17:58:30.152Z,99.90
2023-09-25T18:00:59.888Z,99.90
2023-09-25T18:03:29.098Z,1.00
2023-09-25T18:05:56.145Z,1.00
2023-09-25T18:08:23.297Z,99.90
2023-09-25T18:10:50.298Z,99.90
2023-09-25T18:13:19.754Z,1.00
2023-09-25T18:15:49.295Z,1.00
2023-09-25T18:18:16.390Z,99.90
2023-09-25T18:20:43.664Z,65.10
2023-09-25T18:23:10.715Z,99.90
2023-09-25T18:25:39.851Z,1.00
2023-09-25T18:28:07.027Z,18.70
2023-09-25T18:30:34.058Z,99.90
2023-09-25T18:33:04.172Z,99.90
2023-09-25T18:35:31.171Z,99.90
2023-09-25T18:37:58.115Z,1.00
2023-09-25T18:40:24.990Z,99.90
2023-09-25T18:42:52.810Z,99.90
2023-09-25T18:45:19.911Z,99.90
2023-09-25T18:47:46.792Z,1.00
2023-09-25T18:50:14.856Z,99.90
2023-09-25T18:52:42.047Z,1.00
2023-09-25T18:55:11.553Z,99.90
2023-09-25T18:57:38.809Z,1.00
2023-09-25T19:00:07.870Z,1.00
2023-09-25T19:02:35.347Z,1.00
2023-09-25T19:05:02.615Z,1.00
2023-09-25T19:07:29.482Z,1.00
2023-09-25T19:09:56.368Z,99.90
2023-09-25T19:12:23.499Z,99.90
2023-09-25T19:14:50.657Z,99.90
2023-09-25T19:17:17.431Z,99.90
2023-09-25T19:19:44.740Z,99.90
2023-09-25T19:22:16.703Z,1.00
2023-09-25T19:24:51.805Z,1.00
2023-09-25T19:27:19.012Z,1.00
2023-09-25T19:29:48.168Z,1.00
2023-09-25T19:32:16.238Z,5.90
2023-09-25T19:34:48.477Z,1.00
2023-09-25T19:37:15.897Z,1.00
2023-09-25T19:39:43.090Z,1.00
2023-09-25T19:42:12.712Z,1.00
2023-09-25T19:44:40.064Z,1.00
2023-09-25T19:47:06.971Z,67.20
2023-09-25T19:49:36.527Z,99.90
2023-09-25T19:52:09.210Z,47.50
2023-09-25T19:54:39.914Z,99.90
2023-09-25T19:57:18.759Z,99.90
2023-09-25T19:59:45.989Z,99.90
2023-09-25T20:02:15.839Z,1.00
2023-09-25T20:04:43.618Z,1.00
2023-09-25T20:07:16.128Z,1.00
2023-09-25T20:09:57.144Z,1.00
2023-09-25T20:12:27.029Z,1.00
2023-09-25T20:14:57.931Z,23.10
2023-09-25T20:17:28.043Z,2.00
2023-09-25T20:19:56.431Z,99.90
2023-09-25T20:22:26.026Z,99.90
2023-09-25T20:24:56.115Z,99.90
2023-09-25T20:27:26.143Z,99.90
2023-09-25T20:29:58.998Z,99.90
2023-09-25T20:32:26.253Z,99.90
2023-09-25T20:34:56.028Z,99.90
2023-09-25T20:37:26.359Z,99.90
2023-09-25T20:39:56.787Z,99.90
2023-09-25T20:42:23.743Z,99.90
2023-09-25T20:44:50.655Z,99.90
2023-09-25T20:47:18.068Z,1.00
2023-09-25T20:49:45.077Z,1.00
2023-09-25T20:52:12.083Z,1.00
2023-09-25T20:54:39.282Z,1.00
2023-09-25T20:57:06.140Z,1.00
2023-09-25T20:59:33.091Z,1.00
2023-09-25T21:02:00.570Z,1.00
2023-09-25T21:04:27.575Z,1.00
2023-09-25T21:06:54.749Z,1.00
2023-09-25T21:09:21.984Z,1.00
2023-09-25T21:11:48.919Z,1.00
2023-09-25T21:14:18.776Z,99.90
2023-09-25T21:16:45.802Z,99.90
2023-09-25T21:19:13.036Z,99.90
2023-09-25T21:21:40.172Z,99.90
2023-09-25T21:24:07.655Z,99.90
2023-09-25T21:26:37.731Z,95.00
2023-09-25T21:29:05.201Z,46.90
2023-09-25T21:31:32.441Z,99.90
2023-09-25T21:33:59.645Z,1.00
2023-09-25T21:36:27.076Z,1.00
2023-09-25T21:38:54.050Z,99.90
2023-09-25T21:41:20.984Z,99.90
2023-09-25T21:43:48.555Z,99.90
2023-09-25T21:46:15.939Z,99.90
2023-09-25T21:48:43.255Z,99.90
2023-09-25T21:51:10.544Z,99.90
2023-09-25T21:53:37.986Z,99.90
2023-09-25T21:56:06.537Z,1.00
2023-09-25T21:58:33.561Z,1.00
2023-09-25T22:01:01.470Z,99.90
2023-09-25T22:03:28.812Z,99.90
2023-09-25T22:05:56.579Z,99.90
2023-09-25T22:08:26.381Z,99.90
2023-09-25T22:10:53.665Z,99.90
2023-09-25T22:13:22.105Z,1.00
2023-09-25T22:15:49.348Z,1.00
2023-09-25T22:18:16.647Z,1.00
2023-09-25T22:20:45.629Z,1.00
2023-09-25T22:23:12.705Z,1.00
2023-09-25T22:25:42.883Z,1.00
2023-09-25T22:28:09.745Z,1.00
2023-09-25T22:30:36.880Z,1.00
2023-09-25T22:33:04.219Z,1.00
2023-09-25T22:35:33.458Z,1.00
2023-09-25T22:38:06.394Z,1.00
2023-09-25T22:40:35.149Z,1.00
2023-09-25T22:43:05.401Z,1.00
2023-09-25T22:45:33.846Z,1.00
2023-09-25T22:48:01.945Z,93.30
2023-09-25T22:50:36.093Z,99.90
2023-09-25T22:53:03.221Z,99.90
2023-09-25T22:55:31.590Z,99.90
2023-09-25T22:57:58.486Z,99.90
2023-09-25T23:00:28.229Z,99.90
2023-09-25T23:02:55.942Z,99.90
2023-09-25T23:05:22.968Z,99.90
2023-09-25T23:07:50.013Z,99.90
2023-09-25T23:10:17.563Z,99.90
2023-09-25T23:12:47.668Z,99.90
2023-09-25T23:15:16.659Z,99.90
2023-09-25T23:17:46.691Z,99.90
2023-09-25T23:20:28.170Z,99.90
2023-09-25T23:22:58.221Z,99.90
2023-09-25T23:25:30.272Z,99.90
2023-09-25T23:27:57.896Z,99.90
2023-09-25T23:30:24.963Z,99.90
2023-09-25T23:32:52.840Z,99.90
2023-09-25T23:35:20.555Z,99.90
2023-09-25T23:37:48.355Z,99.90
2023-09-25T23:40:18.295Z,99.90
2023-09-25T23:42:46.721Z,99.90
2023-09-25T23:45:18.021Z,99.90
2023-09-25T23:47:47.171Z,99.90
2023-09-25T23:50:17.229Z,99.90
2023-09-25T23:52:45.932Z,99.90
2023-09-25T23:55:13.711Z,99.90
2023-09-25T23:57:41.484Z,99.90
